Accueil
METAR-TAF:

METAR-TAF

Aéroports :

Chengdu, Chine

Aéroport international de Chengdu-Shuangliu

latitude: 30-40N, longitude: 104-01E, altitude: 508 m

Observation

Le bulletin a été fait il y a 23 minutes, à 15:00 UTC
Vent 4 kt de sud/sud-ouest, variant entre sud/sud-est et ouest/sud-ouest
Température 24°C
Humidité 83%
Pression 1015 hPa
Visibilité 10 km ou plus
pas de nuages en-dessous de 1500 mètres et pas de cumulonimbus.

METAR: ZUUU 191500Z 20002MPS 150V240 CAVOK 24/21 Q1015 NOSIG

Heure: 23:23 (15:23 UTC)

Prévision

Le bulletin a été fait il y a 7 heures et 8 minutes, à 08:15 UTC
Prévision valable du 19 à 12 UTC au 20 à 12 UTC
Vent 6 kt de sud-ouest
Visibilité: 5000 m
Nuages épars à une hauteur de 5000 ft
brume

TAF: ZUUU 190815Z 1912/2012 22003MPS 5000 BR SCT050 TX29/2007Z TN20/1922Z

Observations et prévisions météorologiques de plus de 4000 aéroports (messages METAR et TAF).

Les stations disponibles sont représentées par des disques jaunes et rouges sur la carte.

Passer la souris dessus pour voir le nom de la station.

Cliquer dessus pour voir les observations et prévisions météorologiques.

Pour changer de carte: cliquez sur les boutons verts avec une croix noire pour zoomer, sur le bouton vert avec un tiret pour effectuer un zoom arrière, ou sur les flèches vertes pour les cartes adjacentes.


METAR-TAF: